< < Back
Terminal Aerodrome Forecast


Current Version              Previous Versions:   1  2  3  4  5  6  7  8  9  

Terminal Aerodrome Forecast

139
FTUS42 KGSP 271740
TAFAVL
TAF
KAVL 271740Z 2718/2818 15006KT P6SM SCT050
     FM271900 23005KT P6SM VCTS BKN035CB
     FM280300 30003KT P6SM BKN250 PROB30 2803/2808 4SM -TSRA
      OVC040CB
     FM281000 31003KT 4SM BR VCTS SCT070CB
     FM281300 29005KT P6SM SCT070 SCT250 PROB30 2814/2816 4SM -TSRA
      BKN250CB=



Latest METAR

784
SAUS70 KWBC 280400
MTRAVL
METAR KAVL 280354Z AUTO 34007KT 10SM CLR 24/18 A3007 RMK AO2 SLP150
T02390183


USA.gov is the U.S. government's official web portal to all federal, state and local government web resources and services.